sensor_id;sensor_type;location;lat;lon;timestamp;pressure;altitude;pressure_sealevel;temperature;humidity
1401;BME280;46518;48.842;8.926;2023-10-13T00:02:08;97177.72;;;19.39;52.03
1401;BME280;46518;48.842;8.926;2023-10-13T00:04:38;97185.63;;;19.45;51.07
1401;BME280;46518;48.842;8.926;2023-10-13T00:07:09;97177.63;;;19.45;51.26
1401;BME280;46518;48.842;8.926;2023-10-13T00:09:38;97170.50;;;19.40;51.38
1401;BME280;46518;48.842;8.926;2023-10-13T00:12:08;97172.06;;;19.41;51.28
1401;BME280;46518;48.842;8.926;2023-10-13T00:14:42;97169.34;;;19.69;50.84
1401;BME280;46518;48.842;8.926;2023-10-13T00:17:12;97171.06;;;19.51;51.44
1401;BME280;46518;48.842;8.926;2023-10-13T00:19:47;97179.34;;;19.49;52.05
1401;BME280;46518;48.842;8.926;2023-10-13T00:22:19;97180.22;;;19.22;53.06
1401;BME280;46518;48.842;8.926;2023-10-13T00:24:50;97183.38;;;19.24;53.14
1401;BME280;46518;48.842;8.926;2023-10-13T00:27:25;97173.69;;;19.14;53.37
1401;BME280;46518;48.842;8.926;2023-10-13T00:29:59;97169.19;;;19.01;53.92
1401;BME280;46518;48.842;8.926;2023-10-13T00:32:49;97169.00;;;18.98;53.88
1401;BME280;46518;48.842;8.926;2023-10-13T00:35:22;97163.19;;;19.32;53.02
1401;BME280;46518;48.842;8.926;2023-10-13T00:37:55;97173.22;;;18.71;54.56
1401;BME280;46518;48.842;8.926;2023-10-13T00:40:25;97170.50;;;18.29;54.65
1401;BME280;46518;48.842;8.926;2023-10-13T00:43:19;97169.25;;;18.41;54.26
1401;BME280;46518;48.842;8.926;2023-10-13T00:46:00;97164.41;;;18.43;53.79
1401;BME280;46518;48.842;8.926;2023-10-13T00:48:37;97169.94;;;18.46;53.87
1401;BME280;46518;48.842;8.926;2023-10-13T00:51:13;97171.13;;;18.54;54.11
1401;BME280;46518;48.842;8.926;2023-10-13T00:54:00;97177.84;;;18.51;53.31
1401;BME280;46518;48.842;8.926;2023-10-13T00:56:29;97176.88;;;18.47;53.98
1401;BME280;46518;48.842;8.926;2023-10-13T00:59:00;97170.72;;;18.47;53.69
1401;BME280;46518;48.842;8.926;2023-10-13T01:01:29;97160.22;;;18.83;53.79
1401;BME280;46518;48.842;8.926;2023-10-13T01:04:00;97166.72;;;18.91;52.84
1401;BME280;46518;48.842;8.926;2023-10-13T01:06:32;97167.97;;;18.52;54.34
1401;BME280;46518;48.842;8.926;2023-10-13T01:09:06;97161.59;;;18.81;53.82
1401;BME280;46518;48.842;8.926;2023-10-13T01:11:42;97164.34;;;18.89;54.10
1401;BME280;46518;48.842;8.926;2023-10-13T01:14:13;97167.22;;;18.79;54.12
1401;BME280;46518;48.842;8.926;2023-10-13T01:16:44;97163.56;;;18.75;54.31
1401;BME280;46518;48.842;8.926;2023-10-13T01:19:14;97169.56;;;18.53;54.30
1401;BME280;46518;48.842;8.926;2023-10-13T01:21:44;97156.94;;;18.72;54.05
1401;BME280;46518;48.842;8.926;2023-10-13T01:24:14;97159.00;;;18.48;53.55
1401;BME280;46518;48.842;8.926;2023-10-13T01:26:42;97151.41;;;18.55;54.38
1401;BME280;46518;48.842;8.926;2023-10-13T01:29:11;97143.66;;;18.26;54.13
1401;BME280;46518;48.842;8.926;2023-10-13T01:31:42;97154.34;;;18.40;53.99
1401;BME280;46518;48.842;8.926;2023-10-13T01:34:15;97146.47;;;18.35;54.11
1401;BME280;46518;48.842;8.926;2023-10-13T01:36:50;97146.34;;;18.26;54.38
1401;BME280;46518;48.842;8.926;2023-10-13T01:39:21;97137.19;;;17.99;54.30
1401;BME280;46518;48.842;8.926;2023-10-13T01:41:53;97146.78;;;18.14;54.44
1401;BME280;46518;48.842;8.926;2023-10-13T01:44:24;97133.78;;;18.13;55.56
1401;BME280;46518;48.842;8.926;2023-10-13T01:46:51;97137.00;;;18.09;55.91
1401;BME280;46518;48.842;8.926;2023-10-13T01:49:19;97137.59;;;18.06;56.24
1401;BME280;46518;48.842;8.926;2023-10-13T01:51:50;97133.13;;;17.69;57.12
1401;BME280;46518;48.842;8.926;2023-10-13T01:54:18;97134.59;;;17.61;58.34
1401;BME280;46518;48.842;8.926;2023-10-13T01:56:49;97129.50;;;17.46;58.16
1401;BME280;46518;48.842;8.926;2023-10-13T01:59:17;97126.34;;;17.25;58.05
1401;BME280;46518;48.842;8.926;2023-10-13T02:01:45;97135.88;;;17.07;58.86
1401;BME280;46518;48.842;8.926;2023-10-13T02:04:13;97133.59;;;17.00;58.38
1401;BME280;46518;48.842;8.926;2023-10-13T02:06:41;97131.28;;;16.94;58.26
1401;BME280;46518;48.842;8.926;2023-10-13T02:09:10;97121.16;;;16.96;57.74
1401;BME280;46518;48.842;8.926;2023-10-13T02:11:42;97117.13;;;16.98;57.40
1401;BME280;46518;48.842;8.926;2023-10-13T02:14:14;97114.34;;;17.09;57.34
1401;BME280;46518;48.842;8.926;2023-10-13T02:16:43;97116.41;;;17.12;56.81
1401;BME280;46518;48.842;8.926;2023-10-13T02:19:16;97111.97;;;17.26;56.18
1401;BME280;46518;48.842;8.926;2023-10-13T02:21:47;97104.84;;;17.21;56.17
1401;BME280;46518;48.842;8.926;2023-10-13T02:24:25;97107.00;;;17.19;56.42
1401;BME280;46518;48.842;8.926;2023-10-13T02:26:56;97114.34;;;17.28;56.02
1401;BME280;46518;48.842;8.926;2023-10-13T02:29:31;97107.84;;;17.53;55.75
1401;BME280;46518;48.842;8.926;2023-10-13T02:32:05;97098.34;;;17.46;55.88
1401;BME280;46518;48.842;8.926;2023-10-13T02:34:40;97105.75;;;17.50;56.46
1401;BME280;46518;48.842;8.926;2023-10-13T02:37:11;97097.38;;;17.42;57.15
1401;BME280;46518;48.842;8.926;2023-10-13T02:39:40;97099.44;;;17.45;56.88
1401;BME280;46518;48.842;8.926;2023-10-13T02:42:08;97102.03;;;17.51;56.39
1401;BME280;46518;48.842;8.926;2023-10-13T02:44:44;97085.00;;;17.33;57.09
1401;BME280;46518;48.842;8.926;2023-10-13T02:47:13;97091.31;;;17.37;56.82
1401;BME280;46518;48.842;8.926;2023-10-13T02:49:41;97087.38;;;16.96;57.93
1401;BME280;46518;48.842;8.926;2023-10-13T02:52:10;97088.69;;;16.99;57.54
1401;BME280;46518;48.842;8.926;2023-10-13T02:54:40;97081.56;;;17.13;56.94
1401;BME280;46518;48.842;8.926;2023-10-13T02:57:14;97072.84;;;17.27;56.92
1401;BME280;46518;48.842;8.926;2023-10-13T02:59:45;97088.31;;;17.24;56.87
1401;BME280;46518;48.842;8.926;2023-10-13T03:02:14;97078.28;;;17.02;57.43
1401;BME280;46518;48.842;8.926;2023-10-13T03:04:51;97091.19;;;16.90;57.84
1401;BME280;46518;48.842;8.926;2023-10-13T03:07:18;97082.69;;;17.07;57.50
1401;BME280;46518;48.842;8.926;2023-10-13T03:09:50;97078.47;;;17.06;57.13
1401;BME280;46518;48.842;8.926;2023-10-13T03:12:19;97073.94;;;17.07;56.69
1401;BME280;46518;48.842;8.926;2023-10-13T03:14:50;97077.97;;;17.04;57.06
1401;BME280;46518;48.842;8.926;2023-10-13T03:17:22;97075.31;;;17.23;56.45
1401;BME280;46518;48.842;8.926;2023-10-13T03:20:00;97072.94;;;17.21;56.18
1401;BME280;46518;48.842;8.926;2023-10-13T03:22:38;97066.94;;;17.30;56.30
1401;BME280;46518;48.842;8.926;2023-10-13T03:25:06;97066.94;;;17.30;56.09
1401;BME280;46518;48.842;8.926;2023-10-13T03:27:40;97067.72;;;16.97;56.87
1401;BME280;46518;48.842;8.926;2023-10-13T03:30:17;97058.59;;;16.60;58.17
1401;BME280;46518;48.842;8.926;2023-10-13T03:32:45;97063.00;;;16.70;58.01
1401;BME280;46518;48.842;8.926;2023-10-13T03:35:15;97057.22;;;16.63;58.05
1401;BME280;46518;48.842;8.926;2023-10-13T03:37:52;97060.88;;;16.67;57.96
1401;BME280;46518;48.842;8.926;2023-10-13T03:40:21;97054.72;;;16.72;57.58
1401;BME280;46518;48.842;8.926;2023-10-13T03:43:03;97061.69;;;16.68;57.83
1401;BME280;46518;48.842;8.926;2023-10-13T03:45:35;97055.69;;;16.57;58.30
1401;BME280;46518;48.842;8.926;2023-10-13T03:48:07;97054.13;;;16.56;58.09
1401;BME280;46518;48.842;8.926;2023-10-13T03:50:39;97054.06;;;16.61;58.34
1401;BME280;46518;48.842;8.926;2023-10-13T03:53:14;97060.53;;;16.55;58.49
1401;BME280;46518;48.842;8.926;2023-10-13T03:55:43;97051.06;;;16.68;58.08
1401;BME280;46518;48.842;8.926;2023-10-13T03:58:15;97048.94;;;16.46;58.32
1401;BME280;46518;48.842;8.926;2023-10-13T04:00:46;97053.69;;;16.49;58.22
1401;BME280;46518;48.842;8.926;2023-10-13T04:03:14;97054.84;;;16.61;57.63
1401;BME280;46518;48.842;8.926;2023-10-13T04:05:45;97057.94;;;16.69;57.74
1401;BME280;46518;48.842;8.926;2023-10-13T04:08:28;97052.97;;;16.86;56.84
1401;BME280;46518;48.842;8.926;2023-10-13T04:11:14;97051.06;;;16.68;57.57
1401;BME280;46518;48.842;8.926;2023-10-13T04:13:59;97058.16;;;16.72;57.40
1401;BME280;46518;48.842;8.926;2023-10-13T04:16:51;97052.13;;;16.67;57.16
1401;BME280;46518;48.842;8.926;2023-10-13T04:19:21;97049.25;;;16.63;57.57
1401;BME280;46518;48.842;8.926;2023-10-13T04:21:56;97058.94;;;16.78;57.18
1401;BME280;46518;48.842;8.926;2023-10-13T04:24:27;97047.81;;;16.71;57.47
1401;BME280;46518;48.842;8.926;2023-10-13T04:27:18;97042.13;;;16.58;57.55
1401;BME280;46518;48.842;8.926;2023-10-13T04:30:04;97054.00;;;16.66;57.43
1401;BME280;46518;48.842;8.926;2023-10-13T04:32:52;97045.16;;;16.71;57.15
1401;BME280;46518;48.842;8.926;2023-10-13T04:36:04;97039.34;;;16.69;56.79
1401;BME280;46518;48.842;8.926;2023-10-13T04:38:41;97037.41;;;16.74;56.78
1401;BME280;46518;48.842;8.926;2023-10-13T04:41:24;97029.03;;;16.86;56.30
1401;BME280;46518;48.842;8.926;2023-10-13T04:43:58;97028.25;;;16.86;56.57
1401;BME280;46518;48.842;8.926;2023-10-13T04:46:47;97020.88;;;16.83;56.63
1401;BME280;46518;48.842;8.926;2023-10-13T04:49:39;97024.06;;;16.79;56.54
1401;BME280;46518;48.842;8.926;2023-10-13T04:52:19;97019.31;;;16.76;56.16
1401;BME280;46518;48.842;8.926;2023-10-13T04:55:06;97017.41;;;16.82;56.21
1401;BME280;46518;48.842;8.926;2023-10-13T04:58:10;97016.75;;;16.90;55.78
1401;BME280;46518;48.842;8.926;2023-10-13T05:00:42;97016.09;;;16.98;55.37
1401;BME280;46518;48.842;8.926;2023-10-13T05:03:39;97023.38;;;16.93;55.64
1401;BME280;46518;48.842;8.926;2023-10-13T05:06:49;97012.00;;;16.87;55.47
1401;BME280;46518;48.842;8.926;2023-10-13T05:09:35;97008.78;;;16.90;55.67
1401;BME280;46518;48.842;8.926;2023-10-13T05:12:20;97006.56;;;16.78;55.27
1401;BME280;46518;48.842;8.926;2023-10-13T05:15:06;97008.13;;;16.79;56.17
1401;BME280;46518;48.842;8.926;2023-10-13T05:17:51;97003.38;;;16.76;56.19
1401;BME280;46518;48.842;8.926;2023-10-13T05:20:37;97003.94;;;16.73;55.70
1401;BME280;46518;48.842;8.926;2023-10-13T05:23:24;96997.63;;;16.69;55.57
1401;BME280;46518;48.842;8.926;2023-10-13T05:26:06;97003.56;;;16.85;55.73
1401;BME280;46518;48.842;8.926;2023-10-13T05:28:48;97000.97;;;16.80;55.55
1401;BME280;46518;48.842;8.926;2023-10-13T05:31:53;96996.13;;;16.63;55.44
1401;BME280;46518;48.842;8.926;2023-10-13T05:34:39;96984.72;;;16.81;55.83
1401;BME280;46518;48.842;8.926;2023-10-13T05:37:27;96993.28;;;16.78;55.10
1401;BME280;46518;48.842;8.926;2023-10-13T05:40:14;96999.22;;;16.70;55.47
1401;BME280;46518;48.842;8.926;2023-10-13T05:43:00;96987.97;;;16.78;55.18
1401;BME280;46518;48.842;8.926;2023-10-13T05:45:45;96983.44;;;16.79;55.12
1401;BME280;46518;48.842;8.926;2023-10-13T05:48:32;96988.38;;;16.86;55.21
1401;BME280;46518;48.842;8.926;2023-10-13T05:51:21;96987.97;;;16.97;54.80
1401;BME280;46518;48.842;8.926;2023-10-13T05:54:11;96993.19;;;17.02;54.78
1401;BME280;46518;48.842;8.926;2023-10-13T05:56:58;96994.16;;;17.07;54.32
1401;BME280;46518;48.842;8.926;2023-10-13T05:59:43;96998.13;;;17.09;54.15
1401;BME280;46518;48.842;8.926;2023-10-13T06:02:30;97003.41;;;17.28;54.00
1401;BME280;46518;48.842;8.926;2023-10-13T06:05:13;97004.03;;;17.39;53.63
1401;BME280;46518;48.842;8.926;2023-10-13T06:07:59;97009.19;;;17.16;53.74
1401;BME280;46518;48.842;8.926;2023-10-13T06:10:45;97009.59;;;17.23;54.08
1401;BME280;46518;48.842;8.926;2023-10-13T06:13:31;97007.91;;;17.14;53.39
1401;BME280;46518;48.842;8.926;2023-10-13T06:16:17;97009.41;;;17.20;54.10
1401;BME280;46518;48.842;8.926;2023-10-13T06:19:03;97011.75;;;17.21;53.35
1401;BME280;46518;48.842;8.926;2023-10-13T06:21:49;97009.88;;;17.22;53.40
1401;BME280;46518;48.842;8.926;2023-10-13T06:24:35;97010.91;;;17.26;53.41
1401;BME280;46518;48.842;8.926;2023-10-13T06:27:23;97008.44;;;17.30;53.25
1401;BME280;46518;48.842;8.926;2023-10-13T06:30:10;97008.94;;;17.32;53.24
1401;BME280;46518;48.842;8.926;2023-10-13T06:32:39;97011.50;;;17.37;53.11
1401;BME280;46518;48.842;8.926;2023-10-13T06:35:08;97003.06;;;17.35;52.81
1401;BME280;46518;48.842;8.926;2023-10-13T06:37:45;97003.75;;;17.40;52.37
1401;BME280;46518;48.842;8.926;2023-10-13T06:40:13;97004.81;;;17.39;52.74
1401;BME280;46518;48.842;8.926;2023-10-13T06:42:53;97001.78;;;17.46;52.95
1401;BME280;46518;48.842;8.926;2023-10-13T06:45:24;96996.97;;;17.48;52.24
1401;BME280;46518;48.842;8.926;2023-10-13T06:47:55;97004.88;;;17.53;52.31
1401;BME280;46518;48.842;8.926;2023-10-13T06:50:25;97010.09;;;17.58;52.06
1401;BME280;46518;48.842;8.926;2023-10-13T06:52:55;97001.44;;;17.66;51.96
1401;BME280;46518;48.842;8.926;2023-10-13T06:55:24;97005.09;;;17.71;51.80
1401;BME280;46518;48.842;8.926;2023-10-13T06:57:55;97006.31;;;17.92;52.23
1401;BME280;46518;48.842;8.926;2023-10-13T07:00:28;97012.81;;;17.86;51.41
1401;BME280;46518;48.842;8.926;2023-10-13T07:03:01;97008.78;;;17.88;52.43
1401;BME280;46518;48.842;8.926;2023-10-13T07:05:35;97000.81;;;17.88;51.42
1401;BME280;46518;48.842;8.926;2023-10-13T07:08:05;97007.63;;;17.95;51.18
1401;BME280;46518;48.842;8.926;2023-10-13T07:10:34;97005.75;;;17.95;52.46
1401;BME280;46518;48.842;8.926;2023-10-13T07:13:12;97008.50;;;17.90;52.22
1401;BME280;46518;48.842;8.926;2023-10-13T07:15:42;97010.78;;;18.10;51.99
1401;BME280;46518;48.842;8.926;2023-10-13T07:18:13;97010.47;;;18.26;51.35
1401;BME280;46518;48.842;8.926;2023-10-13T07:20:42;97007.19;;;18.29;51.53
1401;BME280;46518;48.842;8.926;2023-10-13T07:23:13;97018.06;;;18.19;51.68
1401;BME280;46518;48.842;8.926;2023-10-13T07:25:54;97013.22;;;18.21;50.99
1401;BME280;46518;48.842;8.926;2023-10-13T07:28:30;97012.44;;;18.20;50.64
1401;BME280;46518;48.842;8.926;2023-10-13T07:31:00;97004.75;;;18.32;51.21
1401;BME280;46518;48.842;8.926;2023-10-13T07:33:40;97006.31;;;18.33;50.43
1401;BME280;46518;48.842;8.926;2023-10-13T07:36:09;97000.19;;;18.33;50.79
1401;BME280;46518;48.842;8.926;2023-10-13T07:38:55;96997.44;;;18.38;50.50
1401;BME280;46518;48.842;8.926;2023-10-13T07:41:50;96998.59;;;18.60;50.59
1401;BME280;46518;48.842;8.926;2023-10-13T07:44:21;96990.00;;;18.63;49.57
1401;BME280;46518;48.842;8.926;2023-10-13T07:46:54;96993.03;;;18.70;50.19
1401;BME280;46518;48.842;8.926;2023-10-13T07:49:31;96992.91;;;18.75;49.11
1401;BME280;46518;48.842;8.926;2023-10-13T07:52:00;96995.50;;;18.80;49.94
1401;BME280;46518;48.842;8.926;2023-10-13T07:54:43;96987.88;;;18.87;48.65
1401;BME280;46518;48.842;8.926;2023-10-13T07:57:14;96996.72;;;18.96;48.43
1401;BME280;46518;48.842;8.926;2023-10-13T07:59:44;96984.84;;;19.03;47.43
1401;BME280;46518;48.842;8.926;2023-10-13T08:02:19;96987.16;;;19.18;47.03
1401;BME280;46518;48.842;8.926;2023-10-13T08:05:15;96974.03;;;19.30;46.41
1401;BME280;46518;48.842;8.926;2023-10-13T08:07:52;96973.16;;;19.44;45.65
1401;BME280;46518;48.842;8.926;2023-10-13T08:10:20;96971.25;;;19.67;47.69
1401;BME280;46518;48.842;8.926;2023-10-13T08:12:56;96970.53;;;19.75;45.64
1401;BME280;46518;48.842;8.926;2023-10-13T08:15:25;96974.50;;;19.86;45.27
1401;BME280;46518;48.842;8.926;2023-10-13T08:18:01;96968.91;;;20.05;45.95
1401;BME280;46518;48.842;8.926;2023-10-13T08:20:44;96971.78;;;20.17;44.83
1401;BME280;46518;48.842;8.926;2023-10-13T08:23:12;96962.03;;;20.21;44.49
1401;BME280;46518;48.842;8.926;2023-10-13T08:25:47;96963.31;;;20.33;43.44
1401;BME280;46518;48.842;8.926;2023-10-13T08:28:50;96956.56;;;20.44;43.67
1401;BME280;46518;48.842;8.926;2023-10-13T08:31:24;96961.03;;;20.57;42.90
1401;BME280;46518;48.842;8.926;2023-10-13T08:33:55;96958.53;;;20.70;42.53
1401;BME280;46518;48.842;8.926;2023-10-13T08:36:34;96957.09;;;20.89;43.60
1401;BME280;46518;48.842;8.926;2023-10-13T08:39:05;96960.53;;;21.07;43.59
1401;BME280;46518;48.842;8.926;2023-10-13T08:42:04;96951.06;;;21.19;42.71
1401;BME280;46518;48.842;8.926;2023-10-13T08:44:44;96956.41;;;21.19;42.22
1401;BME280;46518;48.842;8.926;2023-10-13T08:47:14;96959.88;;;21.28;42.58
1401;BME280;46518;48.842;8.926;2023-10-13T08:49:48;96950.09;;;21.32;42.02
1401;BME280;46518;48.842;8.926;2023-10-13T08:52:24;96951.97;;;21.49;42.41
1401;BME280;46518;48.842;8.926;2023-10-13T08:55:13;96954.31;;;21.50;42.41
1401;BME280;46518;48.842;8.926;2023-10-13T08:57:56;96953.84;;;21.57;42.18
1401;BME280;46518;48.842;8.926;2023-10-13T09:00:29;96954.56;;;21.66;41.96
1401;BME280;46518;48.842;8.926;2023-10-13T09:03:22;96951.03;;;21.83;41.83
1401;BME280;46518;48.842;8.926;2023-10-13T09:05:58;96948.78;;;21.94;41.72
1401;BME280;46518;48.842;8.926;2023-10-13T09:08:29;96942.44;;;22.07;41.54
1401;BME280;46518;48.842;8.926;2023-10-13T09:11:03;96939.22;;;22.14;41.53
1401;BME280;46518;48.842;8.926;2023-10-13T09:13:39;96932.50;;;22.37;42.31
1401;BME280;46518;48.842;8.926;2023-10-13T09:16:14;96932.88;;;22.27;39.17
1401;BME280;46518;48.842;8.926;2023-10-13T09:19:09;96938.13;;;22.45;39.17
1401;BME280;46518;48.842;8.926;2023-10-13T09:21:41;96947.88;;;22.49;38.43
1401;BME280;46518;48.842;8.926;2023-10-13T09:24:14;96934.53;;;22.61;39.58
1401;BME280;46518;48.842;8.926;2023-10-13T09:26:54;96932.06;;;22.90;38.88
1401;BME280;46518;48.842;8.926;2023-10-13T09:29:23;96928.09;;;22.75;38.02
1401;BME280;46518;48.842;8.926;2023-10-13T09:32:02;96925.53;;;22.78;37.83
1401;BME280;46518;48.842;8.926;2023-10-13T09:34:31;96919.75;;;22.89;39.68
1401;BME280;46518;48.842;8.926;2023-10-13T09:37:05;96911.13;;;23.04;38.41
1401;BME280;46518;48.842;8.926;2023-10-13T09:39:38;96914.75;;;23.20;38.13
1401;BME280;46518;48.842;8.926;2023-10-13T09:42:12;96914.53;;;23.25;36.89
1401;BME280;46518;48.842;8.926;2023-10-13T09:44:45;96911.88;;;23.38;36.91
1401;BME280;46518;48.842;8.926;2023-10-13T09:47:23;96910.34;;;23.49;37.53
1401;BME280;46518;48.842;8.926;2023-10-13T09:50:00;96909.31;;;23.66;36.83
1401;BME280;46518;48.842;8.926;2023-10-13T09:52:35;96908.00;;;23.72;35.86
1401;BME280;46518;48.842;8.926;2023-10-13T09:55:13;96910.94;;;23.92;37.84
1401;BME280;46518;48.842;8.926;2023-10-13T09:57:51;96906.44;;;23.96;36.87
1401;BME280;46518;48.842;8.926;2023-10-13T10:00:28;96905.97;;;24.06;35.85
1401;BME280;46518;48.842;8.926;2023-10-13T10:03:14;96897.25;;;24.09;35.37
1401;BME280;46518;48.842;8.926;2023-10-13T10:06:07;96906.09;;;24.22;35.92
1401;BME280;46518;48.842;8.926;2023-10-13T10:08:44;96897.19;;;24.33;36.42
1401;BME280;46518;48.842;8.926;2023-10-13T10:14:24;96906.53;;;24.24;35.65
1401;BME280;46518;48.842;8.926;2023-10-13T10:17:04;96896.56;;;24.12;34.87
1401;BME280;46518;48.842;8.926;2023-10-13T10:19:46;96893.53;;;24.14;35.71
1401;BME280;46518;48.842;8.926;2023-10-13T10:22:25;96886.66;;;24.28;35.79
1401;BME280;46518;48.842;8.926;2023-10-13T10:25:00;96893.88;;;24.24;35.88
1401;BME280;46518;48.842;8.926;2023-10-13T10:27:31;96887.66;;;24.48;35.58
1401;BME280;46518;48.842;8.926;2023-10-13T10:30:00;96890.78;;;24.50;34.64
1401;BME280;46518;48.842;8.926;2023-10-13T10:32:32;96885.91;;;24.68;34.90
1401;BME280;46518;48.842;8.926;2023-10-13T10:35:06;96882.81;;;24.82;33.96
1401;BME280;46518;48.842;8.926;2023-10-13T10:37:36;96875.72;;;24.90;34.19
1401;BME280;46518;48.842;8.926;2023-10-13T10:40:09;96866.59;;;24.94;35.20
1401;BME280;46518;48.842;8.926;2023-10-13T10:42:50;96860.47;;;25.10;34.34
1401;BME280;46518;48.842;8.926;2023-10-13T10:45:19;96861.88;;;25.35;32.96
1401;BME280;46518;48.842;8.926;2023-10-13T10:47:49;96863.28;;;25.45;33.28
1401;BME280;46518;48.842;8.926;2023-10-13T10:50:25;96850.91;;;25.60;33.03
1401;BME280;46518;48.842;8.926;2023-10-13T10:53:04;96856.25;;;25.56;31.81
1401;BME280;46518;48.842;8.926;2023-10-13T10:55:37;96854.28;;;25.73;34.24
1401;BME280;46518;48.842;8.926;2023-10-13T10:58:05;96848.06;;;25.69;31.21
1401;BME280;46518;48.842;8.926;2023-10-13T11:00:50;96846.72;;;25.78;30.83
1401;BME280;46518;48.842;8.926;2023-10-13T11:03:29;96850.72;;;25.85;32.51
1401;BME280;46518;48.842;8.926;2023-10-13T11:05:57;96849.41;;;25.94;30.66
1401;BME280;46518;48.842;8.926;2023-10-13T11:08:26;96843.41;;;26.01;30.86
1401;BME280;46518;48.842;8.926;2023-10-13T11:11:00;96834.44;;;25.97;31.21
1401;BME280;46518;48.842;8.926;2023-10-13T11:13:41;96826.25;;;26.29;30.47
1401;BME280;46518;48.842;8.926;2023-10-13T11:16:21;96827.47;;;26.31;29.39
1401;BME280;46518;48.842;8.926;2023-10-13T11:19:01;96825.25;;;26.17;29.88
1401;BME280;46518;48.842;8.926;2023-10-13T11:21:32;96814.59;;;26.24;30.58
1401;BME280;46518;48.842;8.926;2023-10-13T11:24:03;96814.75;;;26.32;29.60
1401;BME280;46518;48.842;8.926;2023-10-13T11:26:37;96814.09;;;26.19;31.40
1401;BME280;46518;48.842;8.926;2023-10-13T11:29:16;96808.56;;;26.31;30.68
1401;BME280;46518;48.842;8.926;2023-10-13T11:31:48;96810.97;;;26.36;28.10
1401;BME280;46518;48.842;8.926;2023-10-13T11:34:21;96805.16;;;26.34;30.43
1401;BME280;46518;48.842;8.926;2023-10-13T11:36:50;96811.13;;;26.43;30.88
1401;BME280;46518;48.842;8.926;2023-10-13T11:39:18;96806.28;;;26.72;30.11
1401;BME280;46518;48.842;8.926;2023-10-13T11:41:52;96799.97;;;26.64;29.37
1401;BME280;46518;48.842;8.926;2023-10-13T11:44:22;96800.75;;;26.65;28.16
1401;BME280;46518;48.842;8.926;2023-10-13T11:46:58;96787.53;;;26.60;28.85
1401;BME280;46518;48.842;8.926;2023-10-13T11:49:55;96796.69;;;26.75;27.63
1401;BME280;46518;48.842;8.926;2023-10-13T11:52:26;96790.56;;;26.78;27.82
1401;BME280;46518;48.842;8.926;2023-10-13T11:54:56;96795.66;;;26.83;29.08
1401;BME280;46518;48.842;8.926;2023-10-13T11:57:26;96789.84;;;27.04;29.14
1401;BME280;46518;48.842;8.926;2023-10-13T11:59:54;96782.81;;;26.99;28.34
1401;BME280;46518;48.842;8.926;2023-10-13T12:02:43;96779.06;;;27.04;27.58
1401;BME280;46518;48.842;8.926;2023-10-13T12:05:31;96772.69;;;27.39;28.90
1401;BME280;46518;48.842;8.926;2023-10-13T12:08:16;96770.09;;;27.23;27.04
1401;BME280;46518;48.842;8.926;2023-10-13T12:10:49;96764.78;;;27.26;27.30
1401;BME280;46518;48.842;8.926;2023-10-13T12:13:28;96768.94;;;27.47;27.33
1401;BME280;46518;48.842;8.926;2023-10-13T12:15:57;96758.22;;;27.54;28.18
1401;BME280;46518;48.842;8.926;2023-10-13T12:18:35;96756.03;;;27.63;27.24
1401;BME280;46518;48.842;8.926;2023-10-13T12:21:08;96745.50;;;27.58;26.28
1401;BME280;46518;48.842;8.926;2023-10-13T12:23:37;96748.38;;;27.69;28.69
1401;BME280;46518;48.842;8.926;2023-10-13T12:26:08;96733.06;;;27.80;27.84
1401;BME280;46518;48.842;8.926;2023-10-13T12:28:47;96739.34;;;27.84;27.33
1401;BME280;46518;48.842;8.926;2023-10-13T12:31:19;96733.63;;;27.93;26.30
1401;BME280;46518;48.842;8.926;2023-10-13T12:33:54;96736.09;;;28.05;26.47
1401;BME280;46518;48.842;8.926;2023-10-13T12:36:24;96731.00;;;28.00;25.81
1401;BME280;46518;48.842;8.926;2023-10-13T12:39:07;96719.84;;;28.05;26.45
1401;BME280;46518;48.842;8.926;2023-10-13T12:41:55;96718.00;;;28.13;26.57
1401;BME280;46518;48.842;8.926;2023-10-13T12:44:42;96718.94;;;28.28;25.33
1401;BME280;46518;48.842;8.926;2023-10-13T12:47:28;96715.13;;;28.32;24.67
1401;BME280;46518;48.842;8.926;2023-10-13T12:50:14;96713.84;;;28.19;26.37
1401;BME280;46518;48.842;8.926;2023-10-13T12:52:53;96716.06;;;28.10;25.08
1401;BME280;46518;48.842;8.926;2023-10-13T12:55:21;96699.81;;;28.10;24.62
1401;BME280;46518;48.842;8.926;2023-10-13T12:57:52;96697.84;;;28.07;24.68
1401;BME280;46518;48.842;8.926;2023-10-13T13:00:21;96703.13;;;28.30;24.12
1401;BME280;46518;48.842;8.926;2023-10-13T13:02:56;96690.63;;;28.55;25.80
1401;BME280;46518;48.842;8.926;2023-10-13T13:05:25;96685.66;;;28.61;24.77
1401;BME280;46518;48.842;8.926;2023-10-13T13:07:56;96674.25;;;28.41;25.84
1401;BME280;46518;48.842;8.926;2023-10-13T13:10:25;96684.84;;;28.60;25.89
1401;BME280;46518;48.842;8.926;2023-10-13T13:13:03;96688.25;;;28.47;24.67
1401;BME280;46518;48.842;8.926;2023-10-13T13:15:34;96682.47;;;28.52;24.04
1401;BME280;46518;48.842;8.926;2023-10-13T13:18:02;96680.94;;;28.54;24.49
1401;BME280;46518;48.842;8.926;2023-10-13T13:20:38;96671.59;;;28.45;24.99
1401;BME280;46518;48.842;8.926;2023-10-13T13:23:20;96675.25;;;28.63;25.13
1401;BME280;46518;48.842;8.926;2023-10-13T13:25:53;96671.56;;;28.89;24.51
1401;BME280;46518;48.842;8.926;2023-10-13T13:28:24;96682.19;;;29.09;25.77
1401;BME280;46518;48.842;8.926;2023-10-13T13:30:57;96670.72;;;28.81;24.46
1401;BME280;46518;48.842;8.926;2023-10-13T13:33:26;96662.97;;;28.80;24.18
1401;BME280;46518;48.842;8.926;2023-10-13T13:36:00;96658.69;;;28.75;24.29
1401;BME280;46518;48.842;8.926;2023-10-13T13:38:28;96651.59;;;28.60;23.44
1401;BME280;46518;48.842;8.926;2023-10-13T13:40:59;96650.81;;;28.59;24.24
1401;BME280;46518;48.842;8.926;2023-10-13T13:43:29;96643.88;;;28.62;24.35
1401;BME280;46518;48.842;8.926;2023-10-13T13:46:06;96631.75;;;28.45;23.59
1401;BME280;46518;48.842;8.926;2023-10-13T13:48:38;96637.16;;;28.45;24.11
1401;BME280;46518;48.842;8.926;2023-10-13T13:51:06;96630.41;;;28.73;24.98
1401;BME280;46518;48.842;8.926;2023-10-13T13:53:42;96623.44;;;28.68;24.74
1401;BME280;46518;48.842;8.926;2023-10-13T13:56:15;96618.13;;;28.38;23.11
1401;BME280;46518;48.842;8.926;2023-10-13T13:58:46;96619.16;;;28.23;23.20
1401;BME280;46518;48.842;8.926;2023-10-13T14:01:17;96616.94;;;28.32;23.64